sensor_id;sensor_type;location;lat;lon;timestamp;pressure;altitude;pressure_sealevel;temperature;humidity
53932;BME280;39844;52.496;13.482;2023-04-03T00:00:40;102846.69;;;1.69;70.72
53932;BME280;39844;52.496;13.482;2023-04-03T00:03:05;102850.06;;;1.68;70.63
53932;BME280;39844;52.496;13.482;2023-04-03T00:05:30;102845.59;;;1.66;70.87
53932;BME280;39844;52.496;13.482;2023-04-03T00:07:56;102849.00;;;1.65;71.01
53932;BME280;39844;52.496;13.482;2023-04-03T00:10:21;102847.19;;;1.64;70.86
53932;BME280;39844;52.496;13.482;2023-04-03T00:12:47;102844.50;;;1.62;70.97
53932;BME280;39844;52.496;13.482;2023-04-03T00:15:12;102846.97;;;1.61;71.18
53932;BME280;39844;52.496;13.482;2023-04-03T00:17:38;102843.47;;;1.60;71.43
53932;BME280;39844;52.496;13.482;2023-04-03T00:20:04;102845.91;;;1.57;71.35
53932;BME280;39844;52.496;13.482;2023-04-03T00:22:29;102853.53;;;1.56;71.33
53932;BME280;39844;52.496;13.482;2023-04-03T00:24:55;102843.88;;;1.53;71.23
53932;BME280;39844;52.496;13.482;2023-04-03T00:27:20;102849.88;;;1.52;71.20
53932;BME280;39844;52.496;13.482;2023-04-03T00:29:45;102848.16;;;1.53;70.58
53932;BME280;39844;52.496;13.482;2023-04-03T00:32:11;102850.66;;;1.51;70.96
53932;BME280;39844;52.496;13.482;2023-04-03T00:34:36;102842.81;;;1.50;70.88
53932;BME280;39844;52.496;13.482;2023-04-03T00:37:02;102845.38;;;1.50;70.68
53932;BME280;39844;52.496;13.482;2023-04-03T00:39:27;102861.69;;;1.49;70.44
53932;BME280;39844;52.496;13.482;2023-04-03T00:41:52;102857.31;;;1.48;70.46
53932;BME280;39844;52.496;13.482;2023-04-03T00:44:22;102855.53;;;1.47;70.43
53932;BME280;39844;52.496;13.482;2023-04-03T00:46:48;102851.13;;;1.46;70.68
53932;BME280;39844;52.496;13.482;2023-04-03T00:49:13;102853.72;;;1.46;70.04
53932;BME280;39844;52.496;13.482;2023-04-03T00:51:39;102846.66;;;1.43;70.29
53932;BME280;39844;52.496;13.482;2023-04-03T00:54:06;102849.94;;;1.41;70.29
53932;BME280;39844;52.496;13.482;2023-04-03T00:56:33;102842.16;;;1.41;70.29
53932;BME280;39844;52.496;13.482;2023-04-03T00:59:07;102853.41;;;1.41;69.78
53932;BME280;39844;52.496;13.482;2023-04-03T01:01:33;102852.53;;;1.41;69.89
53932;BME280;39844;52.496;13.482;2023-04-03T01:04:03;102848.16;;;1.40;69.67
53932;BME280;39844;52.496;13.482;2023-04-03T01:06:31;102855.03;;;1.39;69.59
53932;BME280;39844;52.496;13.482;2023-04-03T01:08:57;102851.53;;;1.39;69.74
53932;BME280;39844;52.496;13.482;2023-04-03T01:11:23;102851.44;;;1.37;69.73
53932;BME280;39844;52.496;13.482;2023-04-03T01:13:48;102848.72;;;1.36;70.06
53932;BME280;39844;52.496;13.482;2023-04-03T01:16:14;102856.63;;;1.37;70.28
53932;BME280;39844;52.496;13.482;2023-04-03T01:18:40;102853.13;;;1.37;69.81
53932;BME280;39844;52.496;13.482;2023-04-03T01:24:27;102862.47;;;1.35;69.93
53932;BME280;39844;52.496;13.482;2023-04-03T01:26:55;102862.47;;;1.35;69.89
53932;BME280;39844;52.496;13.482;2023-04-03T01:29:20;102863.25;;;1.34;70.28
53932;BME280;39844;52.496;13.482;2023-04-03T01:34:14;102855.28;;;1.31;70.06
53932;BME280;39844;52.496;13.482;2023-04-03T01:36:39;102859.47;;;1.28;70.06
53932;BME280;39844;52.496;13.482;2023-04-03T01:39:04;102858.47;;;1.26;70.45
53932;BME280;39844;52.496;13.482;2023-04-03T01:41:29;102865.25;;;1.24;70.31
53932;BME280;39844;52.496;13.482;2023-04-03T01:43:55;102873.78;;;1.23;70.54
53932;BME280;39844;52.496;13.482;2023-04-03T01:46:20;102867.63;;;1.21;70.93
53932;BME280;39844;52.496;13.482;2023-04-03T01:48:46;102873.47;;;1.19;71.04
53932;BME280;39844;52.496;13.482;2023-04-03T01:51:12;102875.94;;;1.17;70.98
53932;BME280;39844;52.496;13.482;2023-04-03T01:53:37;102876.75;;;1.16;71.06
53932;BME280;39844;52.496;13.482;2023-04-03T01:56:03;102874.94;;;1.15;70.96
53932;BME280;39844;52.496;13.482;2023-04-03T01:58:29;102873.94;;;1.13;71.34
53932;BME280;39844;52.496;13.482;2023-04-03T02:00:54;102879.13;;;1.13;71.36
53932;BME280;39844;52.496;13.482;2023-04-03T02:03:19;102882.59;;;1.14;71.13
53932;BME280;39844;52.496;13.482;2023-04-03T02:05:45;102879.00;;;1.12;71.26
53932;BME280;39844;52.496;13.482;2023-04-03T02:08:10;102881.50;;;1.10;71.42
53932;BME280;39844;52.496;13.482;2023-04-03T02:10:35;102883.97;;;1.09;71.49
53932;BME280;39844;52.496;13.482;2023-04-03T02:13:01;102888.13;;;1.07;71.80
53932;BME280;39844;52.496;13.482;2023-04-03T02:15:26;102888.03;;;1.05;71.68
53932;BME280;39844;52.496;13.482;2023-04-03T02:17:51;102884.47;;;1.03;72.02
53932;BME280;39844;52.496;13.482;2023-04-03T02:20:16;102877.47;;;1.02;71.96
53932;BME280;39844;52.496;13.482;2023-04-03T02:22:42;102880.06;;;1.02;72.07
53932;BME280;39844;52.496;13.482;2023-04-03T02:25:07;102888.50;;;1.00;72.23
53932;BME280;39844;52.496;13.482;2023-04-03T02:27:33;102885.81;;;0.98;72.24
53932;BME280;39844;52.496;13.482;2023-04-03T02:29:58;102901.34;;;0.98;72.45
53932;BME280;39844;52.496;13.482;2023-04-03T02:32:23;102895.94;;;0.95;72.75
53932;BME280;39844;52.496;13.482;2023-04-03T02:34:49;102894.94;;;0.93;72.73
53932;BME280;39844;52.496;13.482;2023-04-03T02:37:14;102904.28;;;0.91;72.77
53932;BME280;39844;52.496;13.482;2023-04-03T02:39:39;102897.31;;;0.90;73.15
53932;BME280;39844;52.496;13.482;2023-04-03T02:42:05;102896.53;;;0.91;73.31
53932;BME280;39844;52.496;13.482;2023-04-03T02:44:30;102906.75;;;0.90;73.22
53932;BME280;39844;52.496;13.482;2023-04-03T02:46:55;102910.03;;;0.87;73.55
53932;BME280;39844;52.496;13.482;2023-04-03T02:49:21;102916.88;;;0.87;73.55
53932;BME280;39844;52.496;13.482;2023-04-03T02:51:46;102914.19;;;0.85;73.71
53932;BME280;39844;52.496;13.482;2023-04-03T02:54:11;102917.56;;;0.84;73.63
53932;BME280;39844;52.496;13.482;2023-04-03T02:56:37;102916.69;;;0.84;73.71
53932;BME280;39844;52.496;13.482;2023-04-03T02:59:02;102923.53;;;0.83;73.97
53932;BME280;39844;52.496;13.482;2023-04-03T03:01:28;102923.41;;;0.82;73.77
53932;BME280;39844;52.496;13.482;2023-04-03T03:03:54;102924.09;;;0.79;73.97
53932;BME280;39844;52.496;13.482;2023-04-03T03:06:19;102926.59;;;0.78;74.08
53932;BME280;39844;52.496;13.482;2023-04-03T03:08:44;102925.59;;;0.76;74.11
53932;BME280;39844;52.496;13.482;2023-04-03T03:11:10;102922.00;;;0.74;74.26
53932;BME280;39844;52.496;13.482;2023-04-03T03:13:36;102928.72;;;0.72;74.59
53932;BME280;39844;52.496;13.482;2023-04-03T03:16:02;102928.63;;;0.70;74.67
53932;BME280;39844;52.496;13.482;2023-04-03T03:18:27;102931.13;;;0.69;74.91
53932;BME280;39844;52.496;13.482;2023-04-03T03:20:55;102932.56;;;0.65;74.88
53932;BME280;39844;52.496;13.482;2023-04-03T03:23:22;102933.34;;;0.64;75.09
53932;BME280;39844;52.496;13.482;2023-04-03T03:25:47;102928.84;;;0.61;75.38
53932;BME280;39844;52.496;13.482;2023-04-03T03:28:12;102934.72;;;0.59;75.39
53932;BME280;39844;52.496;13.482;2023-04-03T03:30:38;102947.53;;;0.57;75.31
53932;BME280;39844;52.496;13.482;2023-04-03T03:33:03;102949.09;;;0.55;75.51
53932;BME280;39844;52.496;13.482;2023-04-03T03:35:29;102936.06;;;0.54;75.65
53932;BME280;39844;52.496;13.482;2023-04-03T03:37:54;102946.16;;;0.51;75.83
53932;BME280;39844;52.496;13.482;2023-04-03T03:40:19;102942.59;;;0.49;75.85
53932;BME280;39844;52.496;13.482;2023-04-03T03:42:45;102946.75;;;0.47;75.77
53932;BME280;39844;52.496;13.482;2023-04-03T03:45:10;102949.34;;;0.47;75.87
53932;BME280;39844;52.496;13.482;2023-04-03T03:47:36;102949.25;;;0.45;76.16
53932;BME280;39844;52.496;13.482;2023-04-03T03:50:02;102952.50;;;0.43;76.19
53932;BME280;39844;52.496;13.482;2023-04-03T03:52:27;102946.28;;;0.41;76.22
53932;BME280;39844;52.496;13.482;2023-04-03T03:54:53;102946.19;;;0.39;76.22
53932;BME280;39844;52.496;13.482;2023-04-03T03:57:18;102949.56;;;0.38;76.35
53932;BME280;39844;52.496;13.482;2023-04-03T03:59:43;102946.97;;;0.38;76.42
53932;BME280;39844;52.496;13.482;2023-04-03T04:02:08;102941.72;;;0.37;76.40
53932;BME280;39844;52.496;13.482;2023-04-03T04:04:34;102942.47;;;0.36;76.58
53932;BME280;39844;52.496;13.482;2023-04-03T04:06:59;102945.88;;;0.35;76.53
53932;BME280;39844;52.496;13.482;2023-04-03T04:09:24;102940.72;;;0.35;76.56
53932;BME280;39844;52.496;13.482;2023-04-03T04:11:49;102943.28;;;0.35;76.95
53932;BME280;39844;52.496;13.482;2023-04-03T04:14:15;102950.91;;;0.33;76.68
53932;BME280;39844;52.496;13.482;2023-04-03T04:16:40;102954.28;;;0.32;76.71
53932;BME280;39844;52.496;13.482;2023-04-03T04:19:05;102939.47;;;0.30;76.92
53932;BME280;39844;52.496;13.482;2023-04-03T04:21:31;102949.00;;;0.31;76.71
53932;BME280;39844;52.496;13.482;2023-04-03T04:23:56;102949.81;;;0.30;76.76
53932;BME280;39844;52.496;13.482;2023-04-03T04:26:21;102948.81;;;0.28;77.24
53932;BME280;39844;52.496;13.482;2023-04-03T04:28:47;102950.59;;;0.29;77.09
53932;BME280;39844;52.496;13.482;2023-04-03T04:31:12;102948.00;;;0.29;77.20
53932;BME280;39844;52.496;13.482;2023-04-03T04:33:37;102948.00;;;0.29;77.06
53932;BME280;39844;52.496;13.482;2023-04-03T04:36:03;102948.91;;;0.29;77.11
53932;BME280;39844;52.496;13.482;2023-04-03T04:38:28;102953.16;;;0.29;77.29
53932;BME280;39844;52.496;13.482;2023-04-03T04:40:53;102953.16;;;0.29;77.47
53932;BME280;39844;52.496;13.482;2023-04-03T04:43:19;102952.25;;;0.28;77.39
53932;BME280;39844;52.496;13.482;2023-04-03T04:45:44;102955.75;;;0.29;77.50
53932;BME280;39844;52.496;13.482;2023-04-03T04:48:10;102963.50;;;0.29;77.66
53932;BME280;39844;52.496;13.482;2023-04-03T04:50:35;102967.75;;;0.28;77.68
53932;BME280;39844;52.496;13.482;2023-04-03T04:53:00;102960.91;;;0.29;78.00
53932;BME280;39844;52.496;13.482;2023-04-03T04:55:25;102973.97;;;0.30;78.19
53932;BME280;39844;52.496;13.482;2023-04-03T04:57:51;102966.22;;;0.30;78.09
53932;BME280;39844;52.496;13.482;2023-04-03T05:00:17;102974.06;;;0.32;78.36
53932;BME280;39844;52.496;13.482;2023-04-03T05:02:43;102981.03;;;0.33;78.23
53932;BME280;39844;52.496;13.482;2023-04-03T05:05:09;102981.03;;;0.33;78.38
53932;BME280;39844;52.496;13.482;2023-04-03T05:07:34;102979.44;;;0.35;78.31
53932;BME280;39844;52.496;13.482;2023-04-03T05:10:02;102972.72;;;0.37;78.52
53932;BME280;39844;52.496;13.482;2023-04-03T05:12:28;102974.50;;;0.38;78.48
53932;BME280;39844;52.496;13.482;2023-04-03T05:14:53;102972.94;;;0.40;78.29
53932;BME280;39844;52.496;13.482;2023-04-03T05:17:19;102977.44;;;0.42;78.24
53932;BME280;39844;52.496;13.482;2023-04-03T05:19:44;102981.91;;;0.45;78.27
53932;BME280;39844;52.496;13.482;2023-04-03T05:22:09;102979.44;;;0.46;78.25
53932;BME280;39844;52.496;13.482;2023-04-03T05:24:35;102982.16;;;0.48;78.03
53932;BME280;39844;52.496;13.482;2023-04-03T05:27:00;102986.72;;;0.52;78.14
53932;BME280;39844;52.496;13.482;2023-04-03T05:29:25;102985.16;;;0.54;78.20
53932;BME280;39844;52.496;13.482;2023-04-03T05:31:51;102982.78;;;0.57;78.08
53932;BME280;39844;52.496;13.482;2023-04-03T05:34:16;102990.78;;;0.60;78.06
53932;BME280;39844;52.496;13.482;2023-04-03T05:36:41;102989.31;;;0.63;77.63
53932;BME280;39844;52.496;13.482;2023-04-03T05:39:07;102987.06;;;0.68;77.89
53932;BME280;39844;52.496;13.482;2023-04-03T05:41:33;102993.47;;;0.73;77.43
53932;BME280;39844;52.496;13.482;2023-04-03T05:47:01;102996.69;;;0.82;77.05
53932;BME280;39844;52.496;13.482;2023-04-03T05:49:27;103008.16;;;0.86;76.61
53932;BME280;39844;52.496;13.482;2023-04-03T05:51:52;103005.91;;;0.90;76.40
53932;BME280;39844;52.496;13.482;2023-04-03T05:54:26;102995.78;;;0.93;75.90
53932;BME280;39844;52.496;13.482;2023-04-03T05:56:52;103002.28;;;1.00;76.16
53932;BME280;39844;52.496;13.482;2023-04-03T05:59:19;103015.53;;;1.04;75.59
53932;BME280;39844;52.496;13.482;2023-04-03T06:01:44;103008.88;;;1.08;75.45
53932;BME280;39844;52.496;13.482;2023-04-03T06:04:10;103011.00;;;1.13;75.84
53932;BME280;39844;52.496;13.482;2023-04-03T06:09:15;103009.06;;;1.22;74.93
53932;BME280;39844;52.496;13.482;2023-04-03T06:11:40;103018.38;;;1.32;75.09
53932;BME280;39844;52.496;13.482;2023-04-03T06:14:06;103014.44;;;1.37;74.63
53932;BME280;39844;52.496;13.482;2023-04-03T06:16:31;103014.75;;;1.42;74.13
53932;BME280;39844;52.496;13.482;2023-04-03T06:18:56;103017.56;;;1.45;72.97
53932;BME280;39844;52.496;13.482;2023-04-03T06:21:21;103014.97;;;1.45;72.99
53932;BME280;39844;52.496;13.482;2023-04-03T06:23:47;103033.25;;;1.48;73.28
53932;BME280;39844;52.496;13.482;2023-04-03T06:26:12;103011.19;;;1.53;73.05
53932;BME280;39844;52.496;13.482;2023-04-03T06:28:37;103021.19;;;1.60;72.92
53932;BME280;39844;52.496;13.482;2023-04-03T06:31:03;103020.59;;;1.64;72.34
53932;BME280;39844;52.496;13.482;2023-04-03T06:33:28;103018.22;;;1.67;70.47
53932;BME280;39844;52.496;13.482;2023-04-03T06:35:57;103022.94;;;1.72;70.80
53932;BME280;39844;52.496;13.482;2023-04-03T06:38:23;103024.84;;;1.75;69.97
53932;BME280;39844;52.496;13.482;2023-04-03T06:40:48;103031.22;;;1.80;69.71
53932;BME280;39844;52.496;13.482;2023-04-03T06:43:13;103024.44;;;1.82;68.43
53932;BME280;39844;52.496;13.482;2023-04-03T06:45:39;103024.75;;;1.86;69.07
53932;BME280;39844;52.496;13.482;2023-04-03T06:48:04;103032.03;;;1.92;68.00
53932;BME280;39844;52.496;13.482;2023-04-03T06:50:29;103031.56;;;1.98;68.04
53932;BME280;39844;52.496;13.482;2023-04-03T06:52:55;103025.91;;;2.03;67.79
53932;BME280;39844;52.496;13.482;2023-04-03T06:55:20;103033.84;;;2.06;67.02
53932;BME280;39844;52.496;13.482;2023-04-03T06:57:45;103046.31;;;2.12;66.62
53932;BME280;39844;52.496;13.482;2023-04-03T07:00:11;103042.25;;;2.15;66.05
53932;BME280;39844;52.496;13.482;2023-04-03T07:02:36;103038.28;;;2.20;65.26
53932;BME280;39844;52.496;13.482;2023-04-03T07:05:02;103046.44;;;2.26;65.57
53932;BME280;39844;52.496;13.482;2023-04-03T07:07:27;103053.88;;;2.33;65.01
53932;BME280;39844;52.496;13.482;2023-04-03T07:09:53;103052.25;;;2.35;63.80
53932;BME280;39844;52.496;13.482;2023-04-03T07:12:18;103046.00;;;2.45;64.83
53932;BME280;39844;52.496;13.482;2023-04-03T07:14:43;103041.09;;;2.49;62.59
53932;BME280;39844;52.496;13.482;2023-04-03T07:17:09;103055.75;;;2.62;63.61
53932;BME280;39844;52.496;13.482;2023-04-03T07:19:34;103054.47;;;2.69;62.38
53932;BME280;39844;52.496;13.482;2023-04-03T07:21:59;103057.56;;;2.76;62.34
53932;BME280;39844;52.496;13.482;2023-04-03T07:24:25;103053.78;;;2.84;62.11
53932;BME280;39844;52.496;13.482;2023-04-03T07:26:52;103050.00;;;2.92;61.20
53932;BME280;39844;52.496;13.482;2023-04-03T07:29:17;103061.13;;;3.04;60.73
53932;BME280;39844;52.496;13.482;2023-04-03T07:31:43;103064.03;;;3.09;60.71
53932;BME280;39844;52.496;13.482;2023-04-03T07:34:08;103051.44;;;3.15;59.88
53932;BME280;39844;52.496;13.482;2023-04-03T07:36:33;103062.31;;;3.23;59.71
53932;BME280;39844;52.496;13.482;2023-04-03T07:38:58;103068.16;;;3.33;59.90
53932;BME280;39844;52.496;13.482;2023-04-03T07:41:24;103060.75;;;3.39;58.35
53932;BME280;39844;52.496;13.482;2023-04-03T07:43:49;103063.44;;;3.41;58.06
53932;BME280;39844;52.496;13.482;2023-04-03T07:46:15;103060.97;;;3.42;57.39
53932;BME280;39844;52.496;13.482;2023-04-03T07:48:40;103066.16;;;3.42;56.63
53932;BME280;39844;52.496;13.482;2023-04-03T07:51:06;103056.47;;;3.40;56.52
53932;BME280;39844;52.496;13.482;2023-04-03T07:53:32;103055.75;;;3.42;55.97
53932;BME280;39844;52.496;13.482;2023-04-03T07:55:58;103062.41;;;3.52;56.77
53932;BME280;39844;52.496;13.482;2023-04-03T07:58:24;103064.69;;;3.60;55.81
53932;BME280;39844;52.496;13.482;2023-04-03T08:00:49;103060.69;;;3.65;55.28
53932;BME280;39844;52.496;13.482;2023-04-03T08:03:15;103062.47;;;3.66;55.14
53932;BME280;39844;52.496;13.482;2023-04-03T08:05:43;103068.75;;;3.70;55.53
53932;BME280;39844;52.496;13.482;2023-04-03T08:08:11;103062.16;;;3.90;55.91
53932;BME280;39844;52.496;13.482;2023-04-03T08:10:37;103059.88;;;4.09;55.14
53932;BME280;39844;52.496;13.482;2023-04-03T08:13:03;103078.72;;;4.19;54.97
53932;BME280;39844;52.496;13.482;2023-04-03T08:15:30;103066.13;;;4.12;53.32
53932;BME280;39844;52.496;13.482;2023-04-03T08:17:55;103065.53;;;4.16;54.08
53932;BME280;39844;52.496;13.482;2023-04-03T08:20:21;103057.19;;;4.22;54.17
53932;BME280;39844;52.496;13.482;2023-04-03T08:22:46;103069.19;;;4.20;53.52
53932;BME280;39844;52.496;13.482;2023-04-03T08:25:11;103067.88;;;4.26;53.82
53932;BME280;39844;52.496;13.482;2023-04-03T08:27:37;103068.38;;;4.21;52.81
53932;BME280;39844;52.496;13.482;2023-04-03T08:30:03;103060.41;;;4.18;53.46
53932;BME280;39844;52.496;13.482;2023-04-03T08:32:28;103067.22;;;4.16;53.61
53932;BME280;39844;52.496;13.482;2023-04-03T08:34:53;103067.41;;;4.19;54.35
53932;BME280;39844;52.496;13.482;2023-04-03T08:37:19;103065.59;;;4.18;52.79
53932;BME280;39844;52.496;13.482;2023-04-03T08:39:44;103058.06;;;4.22;52.25
53932;BME280;39844;52.496;13.482;2023-04-03T08:42:36;103061.94;;;4.29;52.51
53932;BME280;39844;52.496;13.482;2023-04-03T08:45:13;103056.28;;;4.21;50.46
53932;BME280;39844;52.496;13.482;2023-04-03T08:47:46;103056.03;;;4.17;50.31
53932;BME280;39844;52.496;13.482;2023-04-03T08:50:17;103061.75;;;4.26;51.59
53932;BME280;39844;52.496;13.482;2023-04-03T08:52:57;103047.31;;;4.31;50.51
53932;BME280;39844;52.496;13.482;2023-04-03T08:55:33;103058.72;;;4.33;49.83
53932;BME280;39844;52.496;13.482;2023-04-03T08:58:04;103055.50;;;4.37;49.91
53932;BME280;39844;52.496;13.482;2023-04-03T09:03:16;103053.06;;;4.40;50.36
53932;BME280;39844;52.496;13.482;2023-04-03T09:05:50;103059.41;;;4.45;50.24
53932;BME280;39844;52.496;13.482;2023-04-03T09:10:46;103051.25;;;4.54;49.77
53932;BME280;39844;52.496;13.482;2023-04-03T09:22:09;103048.19;;;4.61;49.47
53932;BME280;39844;52.496;13.482;2023-04-03T09:24:36;103049.47;;;4.67;49.13
53932;BME280;39844;52.496;13.482;2023-04-03T09:27:08;103057.59;;;4.73;48.63
53932;BME280;39844;52.496;13.482;2023-04-03T09:29:42;103052.09;;;4.83;48.46
53932;BME280;39844;52.496;13.482;2023-04-03T09:32:22;103048.06;;;4.88;47.15
53932;BME280;39844;52.496;13.482;2023-04-03T09:34:52;103047.13;;;5.02;47.12
53932;BME280;39844;52.496;13.482;2023-04-03T09:37:41;103051.56;;;5.20;46.72
53932;BME280;39844;52.496;13.482;2023-04-03T09:42:59;103048.66;;;5.30;45.80
53932;BME280;39844;52.496;13.482;2023-04-03T09:45:31;103046.22;;;5.33;46.07
53932;BME280;39844;52.496;13.482;2023-04-03T09:48:17;103041.34;;;5.39;45.46
53932;BME280;39844;52.496;13.482;2023-04-03T09:53:40;103034.25;;;5.52;46.03
53932;BME280;39844;52.496;13.482;2023-04-03T09:56:19;103037.78;;;5.69;48.01
53932;BME280;39844;52.496;13.482;2023-04-03T09:58:47;103047.03;;;5.80;47.37
53932;BME280;39844;52.496;13.482;2023-04-03T10:01:29;103029.47;;;5.76;47.29
53932;BME280;39844;52.496;13.482;2023-04-03T10:04:12;103038.41;;;5.81;45.98
53932;BME280;39844;52.496;13.482;2023-04-03T10:06:41;103035.34;;;5.88;46.35
53932;BME280;39844;52.496;13.482;2023-04-03T10:09:23;103030.13;;;5.88;45.27
53932;BME280;39844;52.496;13.482;2023-04-03T10:12:05;103032.38;;;5.98;45.47
53932;BME280;39844;52.496;13.482;2023-04-03T10:14:33;103026.94;;;6.10;46.55
53932;BME280;39844;52.496;13.482;2023-04-03T10:19:41;103028.69;;;6.11;45.91
53932;BME280;39844;52.496;13.482;2023-04-03T10:24:52;103020.88;;;6.11;46.33
53932;BME280;39844;52.496;13.482;2023-04-03T10:30:09;103015.94;;;5.99;45.47
53932;BME280;39844;52.496;13.482;2023-04-03T10:32:46;103014.03;;;6.13;48.03
53932;BME280;39844;52.496;13.482;2023-04-03T10:38:22;103009.41;;;6.07;45.36
53932;BME280;39844;52.496;13.482;2023-04-03T10:40:57;103009.75;;;5.97;45.54
53932;BME280;39844;52.496;13.482;2023-04-03T10:43:56;103006.84;;;5.91;46.06
53932;BME280;39844;52.496;13.482;2023-04-03T10:49:25;103001.28;;;5.85;46.19
53932;BME280;39844;52.496;13.482;2023-04-03T10:52:02;103002.75;;;5.96;47.17
53932;BME280;39844;52.496;13.482;2023-04-03T10:54:36;103002.81;;;5.98;46.08
53932;BME280;39844;52.496;13.482;2023-04-03T10:57:06;102995.63;;;6.10;46.43
53932;BME280;39844;52.496;13.482;2023-04-03T10:59:50;102993.16;;;6.13;46.01
53932;BME280;39844;52.496;13.482;2023-04-03T11:02:51;102998.66;;;6.01;45.25
53932;BME280;39844;52.496;13.482;2023-04-03T11:05:29;102994.59;;;5.90;45.15
53932;BME280;39844;52.496;13.482;2023-04-03T11:07:57;102993.22;;;5.81;45.57
53932;BME280;39844;52.496;13.482;2023-04-03T11:10:42;102990.75;;;5.84;47.29
53932;BME280;39844;52.496;13.482;2023-04-03T11:15:38;102984.06;;;5.87;46.75
53932;BME280;39844;52.496;13.482;2023-04-03T11:18:08;102984.09;;;5.89;47.04
53932;BME280;39844;52.496;13.482;2023-04-03T11:20:36;102976.53;;;5.93;46.83
53932;BME280;39844;52.496;13.482;2023-04-03T11:23:05;102973.88;;;6.09;47.09
53932;BME280;39844;52.496;13.482;2023-04-03T11:25:36;102983.44;;;6.26;46.69
53932;BME280;39844;52.496;13.482;2023-04-03T11:28:05;102975.09;;;6.33;47.32
53932;BME280;39844;52.496;13.482;2023-04-03T11:30:47;102978.59;;;6.34;46.42
53932;BME280;39844;52.496;13.482;2023-04-03T11:35:47;102968.59;;;6.25;47.00
53932;BME280;39844;52.496;13.482;2023-04-03T11:38:22;102976.28;;;6.22;46.45
53932;BME280;39844;52.496;13.482;2023-04-03T11:40:49;102975.16;;;6.17;47.27
53932;BME280;39844;52.496;13.482;2023-04-03T11:43:22;102974.66;;;6.24;47.74
53932;BME280;39844;52.496;13.482;2023-04-03T11:46:03;102969.59;;;6.27;47.95
53932;BME280;39844;52.496;13.482;2023-04-03T11:53:36;102976.88;;;6.34;48.32
53932;BME280;39844;52.496;13.482;2023-04-03T12:01:48;102967.03;;;6.11;47.28
53932;BME280;39844;52.496;13.482;2023-04-03T12:04:15;102966.22;;;6.12;47.66
53932;BME280;39844;52.496;13.482;2023-04-03T12:06:49;102973.38;;;6.16;48.34
53932;BME280;39844;52.496;13.482;2023-04-03T12:09:30;102967.78;;;6.26;47.42
53932;BME280;39844;52.496;13.482;2023-04-03T12:11:59;102960.91;;;6.28;46.56
53932;BME280;39844;52.496;13.482;2023-04-03T12:14:26;102967.41;;;6.36;46.61
53932;BME280;39844;52.496;13.482;2023-04-03T12:16:54;102960.28;;;6.50;46.56
53932;BME280;39844;52.496;13.482;2023-04-03T12:19:38;102955.09;;;6.69;45.89
53932;BME280;39844;52.496;13.482;2023-04-03T12:22:06;102964.34;;;6.99;46.20
53932;BME280;39844;52.496;13.482;2023-04-03T12:24:37;102951.69;;;7.26;45.31
53932;BME280;39844;52.496;13.482;2023-04-03T12:45:24;102946.84;;;7.35;41.76
53932;BME280;39844;52.496;13.482;2023-04-03T12:47:52;102938.75;;;7.10;41.82
53932;BME280;39844;52.496;13.482;2023-04-03T12:50:20;102927.03;;;6.83;42.54
53932;BME280;39844;52.496;13.482;2023-04-03T12:52:51;102938.81;;;6.56;43.57
53932;BME280;39844;52.496;13.482;2023-04-03T12:55:19;102938.34;;;6.47;44.28
53932;BME280;39844;52.496;13.482;2023-04-03T12:57:45;102936.47;;;6.44;44.17
53932;BME280;39844;52.496;13.482;2023-04-03T13:00:35;102929.78;;;6.49;44.14
53932;BME280;39844;52.496;13.482;2023-04-03T13:03:04;102935.94;;;6.69;45.31
53932;BME280;39844;52.496;13.482;2023-04-03T13:05:31;102932.72;;;6.74;43.38
53932;BME280;39844;52.496;13.482;2023-04-03T13:08:04;102930.00;;;6.90;44.65
53932;BME280;39844;52.496;13.482;2023-04-03T13:10:31;102925.84;;;6.94;43.65
53932;BME280;39844;52.496;13.482;2023-04-03T13:13:06;102930.34;;;6.98;43.80
53932;BME280;39844;52.496;13.482;2023-04-03T13:15:42;102911.19;;;6.97;44.21
53932;BME280;39844;52.496;13.482;2023-04-03T13:20:49;102925.34;;;7.03;44.49
53932;BME280;39844;52.496;13.482;2023-04-03T13:23:17;102920.13;;;7.03;44.57
53932;BME280;39844;52.496;13.482;2023-04-03T13:25:45;102919.88;;;6.96;44.42
53932;BME280;39844;52.496;13.482;2023-04-03T13:28:14;102923.00;;;6.89;44.83
53932;BME280;39844;52.496;13.482;2023-04-03T13:30:41;102923.19;;;6.75;45.80
53932;BME280;39844;52.496;13.482;2023-04-03T13:33:24;102926.34;;;6.50;45.60
53932;BME280;39844;52.496;13.482;2023-04-03T13:36:02;102924.41;;;6.28;45.08
53932;BME280;39844;52.496;13.482;2023-04-03T13:38:30;102921.38;;;6.19;45.93
53932;BME280;39844;52.496;13.482;2023-04-03T13:40:57;102911.84;;;6.02;45.78
53932;BME280;39844;52.496;13.482;2023-04-03T13:43:28;102914.81;;;5.92;46.35
53932;BME280;39844;52.496;13.482;2023-04-03T13:48:24;102915.38;;;5.87;47.31
53932;BME280;39844;52.496;13.482;2023-04-03T13:53:16;102915.59;;;5.91;47.84
53932;BME280;39844;52.496;13.482;2023-04-03T13:55:58;102913.06;;;5.93;47.77
53932;BME280;39844;52.496;13.482;2023-04-03T13:58:29;102910.22;;;5.88;48.20
53932;BME280;39844;52.496;13.482;2023-04-03T14:03:29;102909.88;;;5.98;48.89
53932;BME280;39844;52.496;13.482;2023-04-03T14:05:54;102911.91;;;6.04;48.43
53932;BME280;39844;52.496;13.482;2023-04-03T14:08:20;102914.81;;;6.10;48.42
53932;BME280;39844;52.496;13.482;2023-04-03T14:10:46;102913.22;;;6.31;47.35
53932;BME280;39844;52.496;13.482;2023-04-03T14:13:13;102899.78;;;6.59;47.71
53932;BME280;39844;52.496;13.482;2023-04-03T14:15:39;102907.22;;;6.69;46.95
53932;BME280;39844;52.496;13.482;2023-04-03T14:18:04;102901.91;;;6.85;46.59
53932;BME280;39844;52.496;13.482;2023-04-03T14:20:30;102900.09;;;6.84;46.50
53932;BME280;39844;52.496;13.482;2023-04-03T14:22:55;102900.94;;;6.83;46.42